createdAt,value
2018-03-18T00:01:15.175Z,0.26
2018-03-18T00:03:44.494Z,0.21
2018-03-18T00:06:13.676Z,0.24
2018-03-18T00:08:42.901Z,0.21
2018-03-18T00:11:11.254Z,0.09
2018-03-18T00:13:40.364Z,0.05
2018-03-18T00:16:08.673Z,0.00
2018-03-18T00:18:37.150Z,0.00
2018-03-18T00:21:05.469Z,0.16
2018-03-18T00:23:33.751Z,0.10
2018-03-18T00:26:02.090Z,0.01
2018-03-18T00:28:30.460Z,0.12
2018-03-18T00:30:58.959Z,0.00
2018-03-18T00:33:27.277Z,0.06
2018-03-18T00:35:56.399Z,-0.02
2018-03-18T00:38:24.692Z,0.06
2018-03-18T00:40:52.992Z,0.12
2018-03-18T00:43:21.311Z,0.12
2018-03-18T00:45:50.394Z,0.20
2018-03-18T00:48:19.671Z,0.13
2018-03-18T00:50:48.061Z,0.16
2018-03-18T00:53:16.390Z,0.12
2018-03-18T00:55:44.955Z,0.08
2018-03-18T00:58:13.300Z,0.13
2018-03-18T01:00:41.754Z,0.07
2018-03-18T01:03:10.316Z,0.06
2018-03-18T01:05:38.659Z,0.08
2018-03-18T01:08:07.771Z,0.07
2018-03-18T01:10:37.511Z,0.06
2018-03-18T01:13:06.038Z,0.02
2018-03-18T01:15:35.184Z,-0.02
2018-03-18T01:18:03.609Z,-0.08
2018-03-18T01:20:31.900Z,-0.01
2018-03-18T01:23:01.132Z,-0.03
2018-03-18T01:25:29.442Z,0.06
2018-03-18T01:27:57.770Z,0.04
2018-03-18T01:30:26.234Z,-0.01
2018-03-18T01:32:55.435Z,-0.09
2018-03-18T01:35:24.541Z,-0.02
2018-03-18T01:37:54.514Z,-0.01
2018-03-18T01:40:22.831Z,-0.05
2018-03-18T01:42:51.146Z,-0.03
2018-03-18T01:45:19.480Z,-0.07
2018-03-18T01:47:47.762Z,-0.06
2018-03-18T01:50:16.045Z,0.01
2018-03-18T01:53:01.926Z,0.00
2018-03-18T01:55:31.210Z,-0.06
2018-03-18T01:57:59.540Z,0.05
2018-03-18T02:00:27.894Z,0.05
2018-03-18T02:02:56.286Z,0.07
2018-03-18T02:05:24.615Z,-0.06
2018-03-18T02:07:53.819Z,0.01
2018-03-18T02:10:22.998Z,0.04
2018-03-18T02:12:52.179Z,0.05
2018-03-18T02:15:20.495Z,0.00
2018-03-18T02:17:49.689Z,0.02
2018-03-18T02:20:18.830Z,0.04
2018-03-18T02:22:47.271Z,0.05
2018-03-18T02:25:15.592Z,0.08
2018-03-18T02:27:43.903Z,0.05
2018-03-18T02:30:12.998Z,0.00
2018-03-18T02:32:42.102Z,0.00
2018-03-18T02:35:11.257Z,0.01
2018-03-18T02:37:39.655Z,-0.11
2018-03-18T02:40:07.976Z,-0.09
2018-03-18T02:42:36.409Z,-0.09
2018-03-18T02:45:04.714Z,0.00
2018-03-18T02:47:33.868Z,-0.04
2018-03-18T02:50:02.362Z,0.10
2018-03-18T02:52:31.576Z,0.05
2018-03-18T02:55:00.050Z,-0.02
2018-03-18T02:57:29.317Z,-0.05
2018-03-18T02:59:57.765Z,-0.03
2018-03-18T03:02:26.061Z,-0.17
2018-03-18T03:04:54.567Z,0.00
2018-03-18T03:07:22.857Z,0.01
2018-03-18T03:09:51.151Z,-0.03
2018-03-18T03:12:20.250Z,0.01
2018-03-18T03:14:49.379Z,-0.03
2018-03-18T03:17:17.940Z,-0.10
2018-03-18T03:19:46.246Z,-0.17
2018-03-18T03:22:15.621Z,-0.18
2018-03-18T03:24:43.944Z,-0.09
2018-03-18T03:27:13.583Z,-0.02
2018-03-18T03:29:41.881Z,-0.01
2018-03-18T03:32:10.942Z,-0.06
2018-03-18T03:34:39.245Z,-0.10
2018-03-18T03:37:08.320Z,-0.08
2018-03-18T03:39:36.613Z,-0.09
2018-03-18T03:42:05.710Z,-0.05
2018-03-18T03:44:34.823Z,-0.05
2018-03-18T03:47:03.256Z,-0.16
2018-03-18T03:49:31.676Z,-0.10
2018-03-18T03:51:59.985Z,-0.20
2018-03-18T03:54:28.262Z,-0.10
2018-03-18T03:56:56.667Z,-0.11
2018-03-18T03:59:26.101Z,-0.08
2018-03-18T04:01:55.303Z,-0.11
2018-03-18T04:04:23.631Z,-0.19
2018-03-18T04:06:51.934Z,-0.29
2018-03-18T04:09:20.275Z,-0.25
2018-03-18T04:11:48.560Z,-0.17
2018-03-18T04:14:16.974Z,-0.15
2018-03-18T04:16:46.043Z,-0.20
2018-03-18T04:19:14.336Z,-0.22
2018-03-18T04:21:43.771Z,-0.22
2018-03-18T04:24:12.271Z,-0.13
2018-03-18T04:26:40.768Z,-0.20
2018-03-18T04:29:09.090Z,-0.18
2018-03-18T04:31:38.228Z,-0.24
2018-03-18T04:34:06.653Z,-0.19
2018-03-18T04:36:34.947Z,-0.17
2018-03-18T04:39:04.132Z,-0.34
2018-03-18T04:41:32.438Z,-0.33
2018-03-18T04:44:00.728Z,-0.25
2018-03-18T04:46:29.100Z,-0.30
2018-03-18T04:48:57.422Z,-0.27
2018-03-18T04:51:25.823Z,-0.30
2018-03-18T04:53:55.001Z,-0.31
2018-03-18T04:56:23.251Z,-0.25
2018-03-18T04:58:51.712Z,-0.28
2018-03-18T05:01:20.031Z,-0.30
2018-03-18T05:03:49.306Z,-0.31
2018-03-18T05:06:17.586Z,-0.25
2018-03-18T05:08:45.967Z,-0.19
2018-03-18T05:11:14.376Z,-0.29
2018-03-18T05:13:44.253Z,-0.34
2018-03-18T05:16:12.523Z,-0.52
2018-03-18T05:18:40.842Z,-0.53
2018-03-18T05:21:09.341Z,-0.61
2018-03-18T05:23:38.424Z,-0.62
2018-03-18T05:26:07.570Z,-0.48
2018-03-18T05:28:35.885Z,-0.57
2018-03-18T05:31:04.181Z,-0.48
2018-03-18T05:33:33.450Z,-0.56
2018-03-18T05:36:01.750Z,-0.56
2018-03-18T05:38:30.807Z,-0.44
2018-03-18T05:40:59.182Z,-0.41
2018-03-18T05:43:27.455Z,-0.45
2018-03-18T05:45:55.762Z,-0.48
2018-03-18T05:48:24.822Z,-0.48
2018-03-18T05:50:53.101Z,-0.45
2018-03-18T05:53:21.469Z,-0.44
2018-03-18T05:55:49.861Z,-0.39
2018-03-18T05:58:18.177Z,-0.40
2018-03-18T06:00:47.230Z,-0.47
2018-03-18T06:03:15.548Z,-0.56
2018-03-18T06:05:44.682Z,-0.66
2018-03-18T06:08:12.982Z,-0.62
2018-03-18T06:10:41.266Z,-0.52
2018-03-18T06:13:09.596Z,-0.49
2018-03-18T06:15:38.093Z,-0.54
2018-03-18T06:18:06.411Z,-0.44
2018-03-18T06:20:34.857Z,-0.43
2018-03-18T06:23:03.187Z,-0.41
2018-03-18T06:25:31.508Z,-0.33
2018-03-18T06:27:59.823Z,-0.30
2018-03-18T06:30:28.276Z,-0.33
2018-03-18T06:32:56.853Z,-0.34
2018-03-18T06:35:25.191Z,-0.34
2018-03-18T06:37:54.311Z,-0.33
2018-03-18T06:40:22.702Z,-0.35
2018-03-18T06:42:51.018Z,-0.34
2018-03-18T06:45:19.323Z,-0.39
2018-03-18T06:47:48.493Z,-0.52
2018-03-18T06:50:17.585Z,-0.55
2018-03-18T06:52:46.001Z,-0.57
2018-03-18T06:55:14.344Z,-0.53
2018-03-18T06:57:44.111Z,-0.55
2018-03-18T07:00:12.410Z,-0.51
2018-03-18T07:02:40.678Z,-0.49
2018-03-18T07:05:08.997Z,-0.50
2018-03-18T07:07:37.414Z,-0.42
2018-03-18T07:10:05.716Z,-0.44
2018-03-18T07:12:34.026Z,-0.38
2018-03-18T07:15:02.426Z,-0.31
2018-03-18T07:17:30.813Z,-0.28
2018-03-18T07:19:59.152Z,-0.35
2018-03-18T07:22:27.710Z,-0.37
2018-03-18T07:24:56.016Z,-0.36
2018-03-18T07:27:24.357Z,-0.17
2018-03-18T07:29:52.748Z,-0.06
2018-03-18T07:32:21.249Z,-0.01
2018-03-18T07:34:50.343Z,-0.07
2018-03-18T07:37:18.817Z,-0.17
2018-03-18T07:39:47.308Z,-0.10
2018-03-18T07:42:15.658Z,-0.06
2018-03-18T07:44:44.207Z,-0.03
2018-03-18T07:47:12.574Z,0.00
2018-03-18T07:49:41.628Z,0.22
2018-03-18T07:52:09.984Z,0.25
2018-03-18T07:54:39.452Z,0.11
2018-03-18T07:57:07.866Z,0.09
2018-03-18T07:59:36.262Z,1.05
2018-03-18T08:02:04.603Z,1.08
2018-03-18T08:04:33.017Z,0.93
2018-03-18T08:07:01.684Z,0.70
2018-03-18T08:09:29.978Z,0.89
2018-03-18T08:11:58.551Z,2.09
2018-03-18T08:14:26.826Z,1.39
2018-03-18T08:16:55.154Z,1.08
2018-03-18T08:19:24.389Z,0.73
2018-03-18T08:21:53.923Z,0.68
2018-03-18T08:24:22.245Z,0.36
2018-03-18T08:26:52.634Z,0.28
2018-03-18T08:29:20.959Z,0.34
2018-03-18T08:31:49.428Z,0.51
2018-03-18T08:34:17.789Z,0.51
2018-03-18T08:36:46.865Z,0.38
2018-03-18T08:39:15.223Z,0.28
2018-03-18T08:41:43.563Z,0.23
2018-03-18T08:44:12.059Z,0.25
2018-03-18T08:46:40.698Z,1.93
2018-03-18T08:49:10.023Z,2.98
2018-03-18T08:51:38.303Z,2.60
2018-03-18T08:54:07.437Z,2.35
2018-03-18T08:56:35.729Z,2.06
2018-03-18T08:59:04.078Z,1.75
2018-03-18T09:01:32.458Z,1.67
2018-03-18T09:04:00.891Z,1.77
2018-03-18T09:06:29.203Z,1.87
2018-03-18T09:08:57.486Z,1.84
2018-03-18T09:11:26.118Z,1.78
2018-03-18T09:13:54.544Z,1.60
2018-03-18T09:16:22.906Z,1.45
2018-03-18T09:18:53.175Z,1.43
2018-03-18T09:21:21.503Z,1.41
2018-03-18T09:23:50.577Z,1.42
2018-03-18T09:26:19.789Z,1.46
2018-03-18T09:28:48.896Z,2.04
2018-03-18T09:31:17.512Z,1.95
2018-03-18T09:33:46.049Z,1.33
2018-03-18T09:36:15.345Z,1.10
2018-03-18T09:38:44.494Z,1.10
2018-03-18T09:41:12.790Z,0.99
2018-03-18T09:43:41.173Z,0.89
2018-03-18T09:46:09.927Z,0.91
2018-03-18T09:48:39.163Z,1.02
2018-03-18T09:51:08.587Z,1.14
2018-03-18T09:56:04.598Z,2.74
2018-03-18T09:58:33.110Z,2.50
2018-03-18T10:01:02.248Z,2.06
2018-03-18T10:03:30.607Z,1.87
2018-03-18T10:05:59.154Z,1.70
2018-03-18T10:08:27.504Z,1.55
2018-03-18T10:10:55.920Z,1.45
2018-03-18T10:13:24.544Z,1.25
2018-03-18T10:15:53.193Z,1.08
2018-03-18T10:18:22.279Z,1.10
2018-03-18T10:20:50.589Z,0.96
2018-03-18T10:23:18.991Z,1.10
2018-03-18T10:25:47.367Z,1.18
2018-03-18T10:28:15.756Z,1.32
2018-03-18T10:30:44.111Z,1.25
2018-03-18T10:33:12.689Z,1.31
2018-03-18T10:35:41.300Z,1.47
2018-03-18T10:38:09.682Z,1.55
2018-03-18T10:40:38.247Z,1.58
2018-03-18T10:43:06.580Z,1.58
2018-03-18T10:45:34.950Z,1.58
2018-03-18T10:48:05.957Z,1.66
2018-03-18T10:50:35.398Z,1.52
2018-03-18T10:53:03.756Z,1.56
2018-03-18T10:55:32.164Z,1.65
2018-03-18T10:58:01.381Z,1.63
2018-03-18T11:00:35.190Z,1.53
2018-03-18T11:03:03.540Z,1.61
2018-03-18T11:05:32.622Z,1.73
2018-03-18T11:08:01.044Z,1.93
2018-03-18T11:10:29.455Z,2.13
2018-03-18T11:12:57.942Z,2.25
2018-03-18T11:15:26.279Z,2.29
2018-03-18T11:17:54.812Z,2.42
2018-03-18T11:20:23.386Z,2.53
2018-03-18T11:22:51.738Z,2.74
2018-03-18T11:25:20.228Z,2.73
2018-03-18T11:27:48.663Z,2.91
2018-03-18T11:30:17.173Z,3.20
2018-03-18T11:32:45.482Z,3.30
2018-03-18T11:35:13.974Z,3.28
2018-03-18T11:37:42.336Z,3.20
2018-03-18T11:40:10.886Z,3.35
2018-03-18T11:42:39.336Z,3.38
2018-03-18T11:45:07.779Z,3.44
2018-03-18T11:47:36.330Z,3.55
2018-03-18T11:50:05.018Z,3.80
2018-03-18T11:52:33.513Z,3.88
2018-03-18T11:55:01.976Z,3.94
2018-03-18T11:57:30.397Z,3.76
2018-03-18T11:59:58.842Z,3.69
2018-03-18T12:02:27.212Z,3.79
2018-03-18T12:04:55.603Z,3.82
2018-03-18T12:07:23.992Z,3.45
2018-03-18T12:09:52.464Z,3.95
2018-03-18T12:12:21.141Z,3.93
2018-03-18T12:14:49.530Z,3.84
2018-03-18T12:17:18.197Z,3.66
2018-03-18T12:19:46.683Z,3.68
2018-03-18T12:22:15.038Z,3.59
2018-03-18T12:24:44.259Z,3.58
2018-03-18T12:27:12.601Z,3.60
2018-03-18T12:29:41.022Z,3.76
2018-03-18T12:32:09.427Z,3.99
2018-03-18T12:34:37.794Z,4.33
2018-03-18T12:37:06.091Z,4.49
2018-03-18T12:39:52.294Z,4.79
2018-03-18T12:42:38.428Z,4.90
2018-03-18T12:45:07.559Z,4.94
2018-03-18T12:47:35.888Z,5.02
2018-03-18T12:50:05.020Z,4.90
2018-03-18T12:52:33.476Z,4.93
2018-03-18T12:55:02.642Z,5.03
2018-03-18T12:57:31.344Z,5.11
2018-03-18T12:59:59.681Z,5.19
2018-03-18T13:02:28.156Z,5.30
2018-03-18T13:04:56.498Z,5.60
2018-03-18T13:07:25.580Z,5.57
2018-03-18T13:09:54.663Z,5.76
2018-03-18T13:12:23.041Z,6.02
2018-03-18T13:14:52.230Z,6.02
2018-03-18T13:17:20.630Z,6.03
2018-03-18T13:19:49.983Z,5.98
2018-03-18T13:22:18.378Z,5.90
2018-03-18T13:24:46.829Z,6.01
2018-03-18T13:27:15.322Z,6.10
2018-03-18T13:29:43.749Z,6.28
2018-03-18T13:32:12.819Z,6.15
2018-03-18T13:34:41.300Z,6.14
2018-03-18T13:37:09.644Z,5.84
2018-03-18T13:39:37.943Z,5.87
2018-03-18T13:42:06.309Z,5.93
2018-03-18T13:44:34.699Z,6.07
2018-03-18T13:47:05.252Z,5.80
2018-03-18T13:49:33.636Z,5.98
2018-03-18T13:52:02.179Z,5.99
2018-03-18T13:54:30.588Z,5.92
2018-03-18T13:56:59.110Z,5.89
2018-03-18T13:59:28.276Z,5.64
2018-03-18T14:01:56.763Z,5.67
2018-03-18T14:04:25.844Z,5.81
2018-03-18T14:06:54.292Z,5.64
2018-03-18T14:09:22.770Z,5.55
2018-03-18T14:11:51.160Z,5.12
2018-03-18T14:14:19.882Z,4.77
2018-03-18T14:16:48.209Z,4.58
2018-03-18T14:19:16.691Z,4.43
2018-03-18T14:21:45.657Z,4.37
2018-03-18T14:24:14.767Z,4.41
2018-03-18T14:26:43.354Z,4.23
2018-03-18T14:29:11.731Z,4.04
2018-03-18T14:31:40.288Z,3.84
2018-03-18T14:34:08.710Z,3.80
2018-03-18T14:36:37.054Z,3.77
2018-03-18T14:39:06.511Z,3.78
2018-03-18T14:41:34.903Z,3.70
2018-03-18T14:44:03.318Z,3.73
2018-03-18T14:46:31.880Z,3.64
2018-03-18T14:49:00.281Z,3.59
2018-03-18T14:51:28.675Z,3.66
2018-03-18T14:53:57.013Z,3.68
2018-03-18T14:56:25.470Z,3.70
2018-03-18T14:58:53.864Z,3.84
2018-03-18T15:01:22.313Z,3.87
2018-03-18T15:03:50.665Z,3.90
2018-03-18T15:06:19.965Z,3.71
2018-03-18T15:08:48.490Z,3.93
2018-03-18T15:11:17.061Z,4.01
2018-03-18T15:13:45.573Z,4.11
2018-03-18T15:16:13.900Z,4.10
2018-03-18T15:18:42.465Z,4.20
2018-03-18T15:21:11.064Z,4.31
2018-03-18T15:23:39.402Z,4.43
2018-03-18T15:26:08.653Z,4.61
2018-03-18T15:28:36.981Z,4.41
2018-03-18T15:31:05.346Z,4.25
2018-03-18T15:33:33.747Z,3.97
2018-03-18T15:36:03.087Z,3.64
2018-03-18T15:38:31.441Z,3.48
2018-03-18T15:40:59.967Z,3.48
2018-03-18T15:43:28.516Z,3.59
2018-03-18T15:45:56.933Z,3.57
2018-03-18T15:48:25.458Z,3.65
2018-03-18T15:50:53.912Z,3.72
2018-03-18T15:53:23.275Z,4.02
2018-03-18T15:55:51.643Z,4.11
2018-03-18T15:58:20.024Z,4.41
2018-03-18T16:00:48.398Z,4.84
2018-03-18T16:03:17.774Z,4.68
2018-03-18T16:05:47.106Z,4.42
2018-03-18T16:08:16.047Z,4.60
2018-03-18T16:10:44.467Z,4.77
2018-03-18T16:13:12.969Z,4.52
2018-03-18T16:15:41.420Z,4.43
2018-03-18T16:18:09.823Z,4.28
2018-03-18T16:20:38.176Z,3.95
2018-03-18T16:23:06.623Z,3.58
2018-03-18T16:25:35.367Z,3.51
2018-03-18T16:28:03.861Z,3.21
2018-03-18T16:30:50.280Z,3.15
2018-03-18T16:33:19.866Z,3.16
2018-03-18T16:35:48.440Z,3.02
2018-03-18T16:38:17.101Z,3.02
2018-03-18T16:40:45.561Z,2.98
2018-03-18T16:43:14.942Z,3.10
2018-03-18T16:45:43.510Z,3.08
2018-03-18T16:48:11.974Z,2.90
2018-03-18T16:50:40.665Z,2.68
2018-03-18T16:53:09.087Z,3.96
2018-03-18T16:55:38.632Z,7.21
2018-03-18T16:58:07.019Z,5.76
2018-03-18T17:00:35.695Z,4.94
2018-03-18T17:03:04.134Z,4.34
2018-03-18T17:05:33.422Z,3.82
2018-03-18T17:08:01.930Z,3.65
2018-03-18T17:10:30.619Z,3.38
2018-03-18T17:13:00.262Z,3.19
2018-03-18T17:15:28.748Z,3.05
2018-03-18T17:17:57.840Z,2.87
2018-03-18T17:20:26.444Z,2.55
2018-03-18T17:22:54.886Z,2.72
2018-03-18T17:25:23.382Z,2.67
2018-03-18T17:27:52.153Z,2.51
2018-03-18T17:30:20.589Z,2.33
2018-03-18T17:32:49.020Z,2.21
2018-03-18T17:35:17.592Z,2.36
2018-03-18T17:37:46.399Z,2.39
2018-03-18T17:40:14.825Z,2.33
2018-03-18T17:42:43.463Z,2.36
2018-03-18T17:45:29.554Z,2.16
2018-03-18T17:48:15.996Z,2.27
2018-03-18T17:51:02.657Z,2.30
2018-03-18T17:53:48.981Z,2.24
2018-03-18T17:56:35.088Z,2.10
2018-03-18T17:59:04.353Z,2.13
2018-03-18T18:01:32.951Z,2.15
2018-03-18T18:04:01.990Z,1.97
2018-03-18T18:06:31.679Z,2.06
2018-03-18T18:09:00.540Z,2.11
2018-03-18T18:11:29.553Z,2.04
2018-03-18T18:13:58.350Z,2.02
2018-03-18T18:16:27.712Z,1.86
2018-03-18T18:18:56.345Z,2.08
2018-03-18T18:21:25.609Z,2.10
2018-03-18T18:23:54.603Z,2.10
2018-03-18T18:26:25.560Z,1.94
2018-03-18T18:28:54.308Z,1.89
2018-03-18T18:31:22.692Z,1.96
2018-03-18T18:33:51.202Z,1.85
2018-03-18T18:36:19.602Z,6.68
2018-03-18T18:38:48.771Z,5.40
2018-03-18T18:41:17.423Z,4.45
2018-03-18T18:43:45.781Z,3.57
2018-03-18T18:46:14.215Z,3.34
2018-03-18T18:48:43.564Z,3.09
2018-03-18T18:51:11.980Z,2.90
2018-03-18T18:53:40.637Z,2.66
2018-03-18T18:56:09.299Z,2.43
2018-03-18T18:58:37.926Z,2.24
2018-03-18T19:01:06.772Z,2.23
2018-03-18T19:03:35.295Z,2.15
2018-03-18T19:06:04.194Z,2.21
2018-03-18T19:08:32.802Z,2.07
2018-03-18T19:11:01.472Z,2.06
2018-03-18T19:13:30.109Z,2.06
2018-03-18T19:15:58.732Z,2.10
2018-03-18T19:18:27.284Z,2.11
2018-03-18T19:20:55.855Z,1.99
2018-03-18T19:23:24.403Z,1.98
2018-03-18T19:25:52.994Z,1.95
2018-03-18T19:28:22.112Z,1.96
2018-03-18T19:30:50.637Z,1.91
2018-03-18T19:33:19.134Z,1.87
2018-03-18T19:35:47.525Z,1.76
2018-03-18T19:38:16.787Z,1.87
2018-03-18T19:40:45.230Z,1.81
2018-03-18T19:43:14.606Z,1.92
2018-03-18T19:45:43.098Z,1.86
2018-03-18T19:48:12.348Z,1.85
2018-03-18T19:50:40.829Z,1.75
2018-03-18T19:53:09.413Z,1.84
2018-03-18T19:55:38.004Z,1.84
2018-03-18T19:58:06.565Z,1.79
2018-03-18T20:00:35.181Z,1.74
2018-03-18T20:03:03.750Z,1.77
2018-03-18T20:05:32.265Z,1.72
2018-03-18T20:08:00.714Z,1.77
2018-03-18T20:10:29.436Z,1.82
2018-03-18T20:12:58.599Z,1.74
2018-03-18T20:15:27.176Z,1.75
2018-03-18T20:17:55.774Z,1.73
2018-03-18T20:20:24.467Z,1.69
2018-03-18T20:22:52.831Z,1.78
2018-03-18T20:25:21.136Z,1.76
2018-03-18T20:27:49.655Z,1.62
2018-03-18T20:30:18.164Z,1.72
2018-03-18T20:32:46.670Z,1.67
2018-03-18T20:35:15.195Z,1.59
2018-03-18T20:37:43.591Z,1.59
2018-03-18T20:40:11.982Z,1.62
2018-03-18T20:42:40.438Z,1.58
2018-03-18T20:45:09.713Z,1.54
2018-03-18T20:47:39.032Z,1.56
2018-03-18T20:50:07.386Z,1.58
2018-03-18T20:52:35.705Z,1.62
2018-03-18T20:55:04.190Z,1.61
2018-03-18T20:57:32.515Z,1.62
2018-03-18T21:00:01.137Z,1.63
2018-03-18T21:02:29.482Z,1.72
2018-03-18T21:04:57.934Z,1.65
2018-03-18T21:07:27.382Z,1.64
2018-03-18T21:09:56.516Z,1.67
2018-03-18T21:12:24.888Z,1.75
2018-03-18T21:14:53.246Z,1.56
2018-03-18T21:17:21.687Z,1.52
2018-03-18T21:19:50.026Z,1.56
2018-03-18T21:22:18.515Z,1.54
2018-03-18T21:24:46.869Z,1.60
2018-03-18T21:27:15.186Z,1.71
2018-03-18T21:29:43.502Z,1.71
2018-03-18T21:32:11.920Z,1.68
2018-03-18T21:34:40.406Z,1.62
2018-03-18T21:37:08.892Z,1.51
2018-03-18T21:39:37.220Z,1.53
2018-03-18T21:42:06.340Z,1.53
2018-03-18T21:44:34.711Z,1.51
2018-03-18T21:47:03.161Z,1.55
2018-03-18T21:49:32.210Z,1.53
2018-03-18T21:52:00.601Z,1.57
2018-03-18T21:54:29.027Z,1.52
2018-03-18T21:56:58.106Z,1.48
2018-03-18T21:59:27.258Z,1.57
2018-03-18T22:01:55.603Z,1.65
2018-03-18T22:04:24.679Z,1.52
2018-03-18T22:06:54.948Z,1.61
2018-03-18T22:09:23.435Z,1.56
2018-03-18T22:11:51.809Z,1.53
2018-03-18T22:14:20.156Z,1.64
2018-03-18T22:16:49.428Z,1.47
2018-03-18T22:19:17.703Z,1.42
2018-03-18T22:21:46.061Z,1.37
2018-03-18T22:24:14.415Z,1.43
2018-03-18T22:26:42.737Z,1.37
2018-03-18T22:29:11.025Z,1.28
2018-03-18T22:31:40.192Z,1.39
2018-03-18T22:34:09.610Z,1.32
2018-03-18T22:36:37.942Z,1.39
2018-03-18T22:39:06.259Z,1.38
2018-03-18T22:41:34.605Z,1.44
2018-03-18T22:44:03.008Z,1.42
2018-03-18T22:46:32.294Z,1.40
2018-03-18T22:49:00.810Z,1.33
2018-03-18T22:51:29.131Z,1.25
2018-03-18T22:53:57.547Z,1.29
2018-03-18T22:56:25.908Z,1.24
2018-03-18T22:58:54.375Z,1.35
2018-03-18T23:01:22.838Z,1.31
2018-03-18T23:03:53.033Z,1.23
2018-03-18T23:06:22.244Z,1.11
2018-03-18T23:08:51.358Z,1.19
2018-03-18T23:11:19.707Z,1.14
2018-03-18T23:13:48.838Z,1.09
2018-03-18T23:16:17.410Z,1.27
2018-03-18T23:18:46.094Z,1.19
2018-03-18T23:21:14.589Z,1.17
2018-03-18T23:23:42.917Z,1.20
2018-03-18T23:26:11.262Z,1.09
2018-03-18T23:28:39.646Z,1.11
2018-03-18T23:31:08.038Z,1.08
2018-03-18T23:33:36.439Z,1.17
2018-03-18T23:36:05.632Z,0.99
2018-03-18T23:38:34.181Z,1.07
2018-03-18T23:41:02.479Z,0.97
2018-03-18T23:43:30.741Z,0.89
2018-03-18T23:45:59.029Z,0.87
2018-03-18T23:48:27.350Z,0.79
2018-03-18T23:50:55.675Z,0.73
2018-03-18T23:53:24.122Z,0.96
2018-03-18T23:55:52.392Z,0.93
2018-03-18T23:58:20.711Z,1.05
